createdAt,value
2019-03-15T00:02:14.742Z,12.00
2019-03-15T00:04:44.899Z,10.70
2019-03-15T00:07:15.554Z,7.73
2019-03-15T00:09:46.180Z,9.80
2019-03-15T00:12:16.620Z,16.23
2019-03-15T00:14:46.974Z,8.27
2019-03-15T00:17:17.731Z,10.70
2019-03-15T00:19:49.213Z,9.03
2019-03-15T00:22:19.396Z,11.00
2019-03-15T00:24:50.219Z,9.10
2019-03-15T00:27:20.462Z,17.40
2019-03-15T00:29:50.623Z,11.23
2019-03-15T00:32:23.568Z,16.60
2019-03-15T00:34:53.629Z,10.33
2019-03-15T00:37:24.013Z,10.57
2019-03-15T00:39:54.832Z,14.13
2019-03-15T00:42:24.894Z,6.53
2019-03-15T00:44:54.926Z,14.63
2019-03-15T00:47:25.665Z,7.10
2019-03-15T00:49:55.810Z,4.00
2019-03-15T00:52:26.074Z,10.83
2019-03-15T00:54:56.870Z,11.23
2019-03-15T00:57:27.089Z,9.00
2019-03-15T00:59:57.480Z,12.23
2019-03-15T01:02:28.325Z,14.60
2019-03-15T01:05:00.451Z,8.40
2019-03-15T01:07:30.311Z,24.17
2019-03-15T01:10:00.609Z,9.63
2019-03-15T01:12:30.730Z,11.97
2019-03-15T01:15:01.028Z,13.73
2019-03-15T01:17:31.548Z,6.77
2019-03-15T01:20:02.811Z,14.17
2019-03-15T01:22:33.092Z,11.77
2019-03-15T01:25:03.700Z,11.63
2019-03-15T01:27:33.824Z,11.23
2019-03-15T01:30:05.262Z,12.13
2019-03-15T01:32:35.680Z,8.40
2019-03-15T01:35:08.637Z,6.10
2019-03-15T01:37:39.158Z,6.10
2019-03-15T01:40:09.424Z,11.57
2019-03-15T01:42:40.015Z,10.43
2019-03-15T01:45:10.967Z,8.87
2019-03-15T01:47:41.042Z,13.43
2019-03-15T01:50:11.471Z,6.00
2019-03-15T01:52:41.764Z,14.63
2019-03-15T01:55:11.789Z,6.90
2019-03-15T01:57:42.276Z,13.53
2019-03-15T02:00:15.600Z,11.57
2019-03-15T02:02:46.432Z,8.13
2019-03-15T02:05:16.968Z,8.70
2019-03-15T02:07:47.050Z,10.30
2019-03-15T02:10:17.531Z,9.97
2019-03-15T02:12:47.702Z,12.93
2019-03-15T02:15:18.511Z,12.37
2019-03-15T02:17:48.949Z,10.93
2019-03-15T02:20:19.075Z,7.97
2019-03-15T02:22:49.992Z,13.80
2019-03-15T02:25:20.209Z,11.60
2019-03-15T02:27:50.593Z,6.90
2019-03-15T02:30:21.028Z,11.90
2019-03-15T02:32:51.387Z,6.23
2019-03-15T02:35:21.664Z,18.90
2019-03-15T02:37:52.221Z,18.23
2019-03-15T02:40:22.425Z,16.13
2019-03-15T02:42:53.173Z,14.67
2019-03-15T02:45:24.055Z,15.80
2019-03-15T02:47:54.814Z,5.50
2019-03-15T02:50:25.378Z,21.00
2019-03-15T02:52:56.122Z,19.77
2019-03-15T02:55:26.230Z,6.23
2019-03-15T02:57:56.933Z,9.70
2019-03-15T03:00:27.167Z,11.57
2019-03-15T03:02:57.176Z,11.83
2019-03-15T03:05:27.579Z,10.03
2019-03-15T03:07:57.923Z,8.87
2019-03-15T03:10:29.161Z,12.33
2019-03-15T03:12:59.585Z,9.60
2019-03-15T03:15:30.248Z,12.83
2019-03-15T03:18:00.624Z,7.43
2019-03-15T03:20:31.156Z,12.60
2019-03-15T03:23:01.561Z,9.03
2019-03-15T03:25:31.825Z,10.73
2019-03-15T03:28:02.170Z,9.03
2019-03-15T03:30:32.509Z,11.00
2019-03-15T03:33:03.979Z,9.30
2019-03-15T03:35:34.294Z,6.57
2019-03-15T03:38:06.381Z,14.17
2019-03-15T03:40:36.461Z,10.80
2019-03-15T03:43:06.535Z,12.40
2019-03-15T03:45:37.314Z,15.23
2019-03-15T03:48:08.498Z,6.60
2019-03-15T03:50:38.744Z,19.37
2019-03-15T03:53:09.449Z,10.50
2019-03-15T03:55:39.729Z,11.57
2019-03-15T03:58:10.050Z,11.60
2019-03-15T04:00:41.137Z,5.70
2019-03-15T04:03:11.544Z,9.23
2019-03-15T04:05:41.609Z,14.40
2019-03-15T04:08:12.397Z,6.73
2019-03-15T04:10:43.277Z,6.53
2019-03-15T04:13:13.608Z,10.77
2019-03-15T04:15:44.144Z,8.33
2019-03-15T04:18:14.349Z,5.30
2019-03-15T04:20:44.765Z,6.83
2019-03-15T04:23:14.900Z,15.07
2019-03-15T04:25:46.187Z,7.97
2019-03-15T04:28:16.357Z,8.00
2019-03-15T04:30:46.594Z,7.13
2019-03-15T04:33:16.850Z,9.13
2019-03-15T04:35:47.154Z,9.70
2019-03-15T04:38:17.958Z,5.43
2019-03-15T04:40:48.002Z,4.87
2019-03-15T04:43:18.138Z,12.37
2019-03-15T04:45:48.923Z,8.73
2019-03-15T04:48:19.173Z,4.10
2019-03-15T04:50:49.469Z,10.97
2019-03-15T04:53:20.106Z,5.70
2019-03-15T04:55:50.133Z,8.13
2019-03-15T04:58:20.097Z,10.23
2019-03-15T05:00:50.778Z,4.30
2019-03-15T05:03:20.925Z,7.63
2019-03-15T05:06:02.589Z,14.57
2019-03-15T05:08:23.320Z,6.63
2019-03-15T05:10:53.634Z,7.83
2019-03-15T05:13:24.150Z,8.53
2019-03-15T05:15:54.730Z,11.57
2019-03-15T05:18:24.797Z,6.43
2019-03-15T05:20:55.441Z,6.93
2019-03-15T05:23:25.707Z,6.53
2019-03-15T05:25:55.700Z,7.17
2019-03-15T05:28:25.925Z,4.33
2019-03-15T05:30:56.265Z,11.70
2019-03-15T05:33:26.569Z,4.97
2019-03-15T05:35:57.050Z,11.07
2019-03-15T05:38:27.662Z,5.10
2019-03-15T05:40:58.039Z,8.30
2019-03-15T05:43:28.478Z,9.60
2019-03-15T05:45:58.770Z,8.07
2019-03-15T05:48:28.697Z,6.13
2019-03-15T05:50:59.169Z,7.67
2019-03-15T05:53:29.429Z,8.83
2019-03-15T05:55:59.477Z,7.93
2019-03-15T05:58:29.403Z,11.40
2019-03-15T06:00:59.578Z,8.77
2019-03-15T06:03:30.368Z,8.23
2019-03-15T06:06:00.863Z,8.90
2019-03-15T06:08:31.170Z,7.93
2019-03-15T06:11:01.403Z,10.80
2019-03-15T06:13:34.012Z,9.70
2019-03-15T06:16:06.493Z,4.30
2019-03-15T06:18:36.780Z,13.83
2019-03-15T06:21:08.475Z,7.23
2019-03-15T06:23:38.753Z,8.77
2019-03-15T06:26:08.903Z,11.80
2019-03-15T06:28:39.594Z,13.90
2019-03-15T06:31:10.100Z,9.37
2019-03-15T06:33:40.900Z,8.37
2019-03-15T06:36:24.916Z,14.53
2019-03-15T06:39:00.780Z,11.40
2019-03-15T06:41:34.492Z,10.63
2019-03-15T06:44:04.654Z,16.83
2019-03-15T06:46:38.654Z,14.80
2019-03-15T06:49:09.802Z,10.60
2019-03-15T06:51:42.420Z,9.43
2019-03-15T06:54:12.777Z,16.83
2019-03-15T06:56:42.992Z,15.57
2019-03-15T06:59:13.136Z,17.67
2019-03-15T07:01:43.254Z,16.37
2019-03-15T07:04:13.873Z,15.00
2019-03-15T07:06:45.933Z,14.20
2019-03-15T07:09:15.926Z,13.70
2019-03-15T07:11:47.570Z,18.67
2019-03-15T07:14:20.148Z,10.83
2019-03-15T07:16:53.508Z,20.97
2019-03-15T07:19:27.628Z,11.60
2019-03-15T07:21:56.997Z,11.40
2019-03-15T07:24:30.577Z,17.93
2019-03-15T07:27:12.121Z,16.53
2019-03-15T07:29:33.987Z,6.67
2019-03-15T07:32:04.006Z,12.43
2019-03-15T07:34:34.624Z,18.50
2019-03-15T07:37:06.220Z,8.40
2019-03-15T07:39:36.471Z,23.43
2019-03-15T07:42:07.153Z,8.90
2019-03-15T07:44:41.581Z,9.63
2019-03-15T07:47:17.413Z,16.23
2019-03-15T07:49:47.964Z,22.20
2019-03-15T07:52:28.890Z,14.43
2019-03-15T07:54:59.353Z,11.53
2019-03-15T07:57:29.655Z,17.10
2019-03-15T08:00:00.364Z,15.67
2019-03-15T08:02:32.965Z,11.90
2019-03-15T08:05:03.156Z,15.73
2019-03-15T08:07:39.642Z,16.93
2019-03-15T08:10:06.814Z,21.73
2019-03-15T08:12:38.672Z,20.83
2019-03-15T08:15:10.759Z,22.83
2019-03-15T08:17:41.081Z,14.97
2019-03-15T08:20:17.519Z,17.07
2019-03-15T08:22:50.595Z,17.47
2019-03-15T08:25:21.797Z,34.07
2019-03-15T08:27:52.264Z,18.10
2019-03-15T08:30:23.253Z,15.77
2019-03-15T08:32:54.088Z,20.27
2019-03-15T08:35:33.029Z,25.13
2019-03-15T08:38:07.993Z,18.53
2019-03-15T08:40:40.613Z,18.60
2019-03-15T08:43:16.527Z,16.60
2019-03-15T08:45:48.276Z,15.43
2019-03-15T08:48:22.249Z,16.67
2019-03-15T08:50:53.917Z,14.47
2019-03-15T08:53:25.419Z,21.40
2019-03-15T08:56:01.001Z,25.43
2019-03-15T08:58:32.442Z,23.03
2019-03-15T09:01:04.150Z,20.17
2019-03-15T09:03:34.747Z,23.57
2019-03-15T09:06:08.021Z,22.83
2019-03-15T09:08:41.017Z,31.47
2019-03-15T09:11:11.051Z,18.70
2019-03-15T09:13:42.365Z,24.67
2019-03-15T09:16:12.895Z,18.67
2019-03-15T09:18:43.021Z,19.30
2019-03-15T09:21:14.818Z,19.87
2019-03-15T09:23:47.606Z,29.70
2019-03-15T09:26:25.413Z,15.03
2019-03-15T09:28:56.502Z,17.17
2019-03-15T09:31:33.616Z,23.30
2019-03-15T09:34:01.161Z,29.00
2019-03-15T09:36:33.884Z,28.70
2019-03-15T09:39:04.446Z,18.50
2019-03-15T09:41:39.735Z,18.17
2019-03-15T09:44:08.843Z,24.83
2019-03-15T09:46:39.440Z,16.70
2019-03-15T09:49:11.194Z,14.90
2019-03-15T09:51:41.482Z,18.67
2019-03-15T09:54:12.177Z,25.70
2019-03-15T09:56:42.297Z,14.80
2019-03-15T09:59:12.998Z,16.40
2019-03-15T10:01:43.499Z,15.73
2019-03-15T10:04:17.197Z,21.17
2019-03-15T10:06:47.018Z,20.93
2019-03-15T10:09:18.767Z,18.00
2019-03-15T10:11:49.234Z,16.13
2019-03-15T10:14:19.307Z,17.70
2019-03-15T10:16:49.897Z,18.20
2019-03-15T10:19:22.671Z,26.90
2019-03-15T10:21:58.948Z,22.80
2019-03-15T10:24:29.507Z,21.93
2019-03-15T10:26:59.598Z,23.13
2019-03-15T10:29:29.786Z,24.20
2019-03-15T10:32:00.130Z,20.20
2019-03-15T10:34:30.456Z,24.67
2019-03-15T10:37:00.943Z,23.47
2019-03-15T10:39:31.250Z,21.23
2019-03-15T10:42:01.460Z,18.47
2019-03-15T10:44:34.885Z,17.07
2019-03-15T10:47:04.948Z,19.23
2019-03-15T10:49:38.020Z,17.30
2019-03-15T10:52:08.981Z,14.57
2019-03-15T10:54:40.941Z,14.27
2019-03-15T10:57:12.872Z,12.53
2019-03-15T10:59:44.278Z,14.17
2019-03-15T11:02:17.900Z,12.30
2019-03-15T11:04:48.282Z,11.77
2019-03-15T11:07:18.433Z,9.23
2019-03-15T11:09:50.158Z,10.50
2019-03-15T11:12:26.421Z,12.23
2019-03-15T11:15:00.068Z,9.10
2019-03-15T11:17:30.358Z,7.73
2019-03-15T11:20:00.539Z,8.83
2019-03-15T11:22:32.735Z,6.40
2019-03-15T11:25:02.821Z,8.53
2019-03-15T11:27:33.394Z,7.87
2019-03-15T11:30:09.546Z,7.67
2019-03-15T11:32:40.599Z,6.30
2019-03-15T11:35:14.658Z,8.63
2019-03-15T11:37:46.222Z,7.37
2019-03-15T11:40:19.737Z,10.17
2019-03-15T11:43:01.055Z,6.97
2019-03-15T11:45:32.790Z,11.60
2019-03-15T11:48:04.488Z,6.63
2019-03-15T11:50:35.487Z,14.60
2019-03-15T11:53:08.360Z,10.67
2019-03-15T11:55:38.768Z,13.70
2019-03-15T11:58:12.821Z,9.77
2019-03-15T12:00:43.432Z,7.83
2019-03-15T12:03:13.642Z,12.47
2019-03-15T12:05:43.984Z,7.87
2019-03-15T12:08:14.213Z,8.20
2019-03-15T12:10:46.495Z,7.23
2019-03-15T12:13:16.528Z,9.70
2019-03-15T12:15:46.442Z,7.47
2019-03-15T12:18:16.761Z,9.23
2019-03-15T12:20:50.366Z,5.40
2019-03-15T12:23:20.786Z,5.70
2019-03-15T12:25:51.037Z,9.37
2019-03-15T12:28:20.983Z,10.23
2019-03-15T12:30:50.820Z,5.67
2019-03-15T12:33:20.692Z,8.40
2019-03-15T12:35:51.252Z,6.20
2019-03-15T12:38:24.109Z,5.17
2019-03-15T12:40:54.636Z,4.70
2019-03-15T12:43:27.372Z,7.43
2019-03-15T12:45:57.578Z,5.87
2019-03-15T12:48:30.777Z,5.80
2019-03-15T12:51:01.512Z,3.77
2019-03-15T12:53:31.632Z,5.90
2019-03-15T12:56:30.767Z,8.23
2019-03-15T12:59:03.561Z,3.97
2019-03-15T13:01:51.856Z,3.77
2019-03-15T13:04:23.191Z,6.63
2019-03-15T13:06:52.978Z,6.30
2019-03-15T13:09:33.382Z,5.70
2019-03-15T13:12:37.978Z,10.50
2019-03-15T13:15:21.564Z,5.53
2019-03-15T13:17:51.986Z,4.27
2019-03-15T13:20:21.976Z,5.57
2019-03-15T13:22:52.825Z,6.80
2019-03-15T13:25:25.314Z,6.33
2019-03-15T13:27:55.649Z,5.47
2019-03-15T13:30:29.878Z,6.80
2019-03-15T13:33:00.057Z,7.67
2019-03-15T13:35:31.731Z,4.20
2019-03-15T13:38:08.379Z,9.10
2019-03-15T13:40:38.572Z,6.20
2019-03-15T13:43:09.872Z,5.70
2019-03-15T13:45:40.555Z,5.77
2019-03-15T13:48:12.450Z,6.17
2019-03-15T13:50:42.433Z,4.10
2019-03-15T13:53:12.714Z,6.73
2019-03-15T13:55:43.340Z,8.10
2019-03-15T13:58:14.559Z,6.13
2019-03-15T14:00:48.089Z,6.03
2019-03-15T14:03:18.181Z,4.83
2019-03-15T14:05:48.560Z,5.50
2019-03-15T14:08:21.313Z,9.60
2019-03-15T14:10:51.854Z,7.00
2019-03-15T14:13:22.357Z,7.77
2019-03-15T14:15:54.772Z,4.20
2019-03-15T14:18:26.137Z,3.67
2019-03-15T14:20:56.798Z,6.50
2019-03-15T14:23:31.670Z,3.60
2019-03-15T14:26:01.885Z,9.83
2019-03-15T14:28:32.393Z,4.40
2019-03-15T14:31:02.702Z,9.43
2019-03-15T14:33:33.532Z,6.97
2019-03-15T14:36:04.142Z,4.60
2019-03-15T14:38:34.519Z,2.47
2019-03-15T14:41:09.228Z,9.63
2019-03-15T14:43:39.591Z,7.80
2019-03-15T14:46:12.160Z,2.80
2019-03-15T14:48:41.738Z,4.63
2019-03-15T14:51:11.970Z,14.13
2019-03-15T14:53:45.494Z,4.33
2019-03-15T14:56:16.119Z,4.17
2019-03-15T14:58:46.526Z,3.73
2019-03-15T15:01:20.044Z,9.13
2019-03-15T15:03:50.265Z,4.90
2019-03-15T15:06:21.905Z,8.73
2019-03-15T15:08:52.125Z,8.07
2019-03-15T15:11:27.737Z,2.93
2019-03-15T15:14:03.793Z,6.63
2019-03-15T15:16:36.426Z,4.90
2019-03-15T15:19:09.356Z,4.63
2019-03-15T15:21:43.021Z,6.10
2019-03-15T15:24:13.017Z,2.47
2019-03-15T15:26:43.537Z,5.20
2019-03-15T15:29:13.989Z,3.50
2019-03-15T15:31:43.997Z,5.73
2019-03-15T15:34:14.429Z,4.87
2019-03-15T15:36:50.652Z,5.70
2019-03-15T15:39:22.516Z,8.30
2019-03-15T15:41:54.164Z,4.87
2019-03-15T15:44:25.435Z,9.40
2019-03-15T15:46:56.865Z,4.83
2019-03-15T15:49:27.323Z,3.87
2019-03-15T15:51:57.617Z,3.10
2019-03-15T15:54:27.774Z,2.30
2019-03-15T15:56:58.140Z,5.60
2019-03-15T15:59:30.979Z,6.77
2019-03-15T16:02:01.420Z,4.00
2019-03-15T16:04:31.781Z,6.30
2019-03-15T16:07:02.084Z,4.27
2019-03-15T16:09:32.316Z,3.03
2019-03-15T16:12:04.010Z,3.47
2019-03-15T16:14:36.634Z,3.43
2019-03-15T16:17:06.808Z,4.37
2019-03-15T16:19:38.515Z,7.00
2019-03-15T16:22:08.724Z,10.00
2019-03-15T16:24:38.889Z,5.13
2019-03-15T16:27:09.364Z,6.53
2019-03-15T16:29:40.269Z,4.00
2019-03-15T16:32:10.192Z,6.13
2019-03-15T16:34:42.019Z,2.27
2019-03-15T16:37:12.173Z,4.20
2019-03-15T16:39:42.242Z,6.33
2019-03-15T16:42:12.372Z,4.43
2019-03-15T16:44:45.938Z,5.60
2019-03-15T16:47:16.830Z,18.93
2019-03-15T16:49:49.415Z,3.87
2019-03-15T16:52:19.672Z,6.73
2019-03-15T16:54:50.311Z,9.60
2019-03-15T16:57:22.069Z,5.30
2019-03-15T16:59:52.371Z,2.90
2019-03-15T17:02:24.941Z,3.57
2019-03-15T17:04:56.348Z,4.10
2019-03-15T17:07:29.496Z,5.40
2019-03-15T17:10:00.098Z,6.77
2019-03-15T17:12:30.436Z,4.80
2019-03-15T17:15:04.258Z,5.07
2019-03-15T17:17:42.777Z,4.20
2019-03-15T17:20:22.572Z,5.00
2019-03-15T17:22:54.764Z,2.70
2019-03-15T17:25:27.589Z,4.87
2019-03-15T17:27:57.196Z,11.10
2019-03-15T17:30:30.278Z,6.97
2019-03-15T17:33:06.323Z,3.57
2019-03-15T17:35:38.361Z,1.90
2019-03-15T17:38:12.067Z,2.83
2019-03-15T17:40:42.245Z,5.00
2019-03-15T17:43:15.731Z,7.57
2019-03-15T17:45:47.182Z,3.60
2019-03-15T17:48:17.767Z,4.60
2019-03-15T17:50:47.918Z,5.30
2019-03-15T17:53:18.131Z,4.93
2019-03-15T17:55:48.165Z,6.80
2019-03-15T17:58:21.759Z,3.83
2019-03-15T18:00:52.428Z,3.30
2019-03-15T18:03:26.730Z,4.47
2019-03-15T18:06:00.088Z,5.23
2019-03-15T18:08:33.852Z,4.73
2019-03-15T18:11:06.954Z,4.27
2019-03-15T18:13:38.970Z,2.80
2019-03-15T18:16:13.469Z,3.93
2019-03-15T18:18:43.921Z,8.00
2019-03-15T18:21:14.142Z,3.20
2019-03-15T18:23:44.574Z,5.33
2019-03-15T18:26:14.712Z,9.83
2019-03-15T18:28:46.035Z,3.40
2019-03-15T18:31:16.608Z,4.47
2019-03-15T18:33:47.306Z,6.00
2019-03-15T18:36:19.773Z,4.57
2019-03-15T18:38:50.106Z,6.77
2019-03-15T18:41:20.652Z,6.23
2019-03-15T18:43:50.868Z,2.97
2019-03-15T18:46:24.305Z,3.97
2019-03-15T18:48:57.958Z,7.87
2019-03-15T18:51:31.460Z,4.97
2019-03-15T18:54:16.773Z,3.90
2019-03-15T18:56:37.040Z,10.60
2019-03-15T18:59:10.716Z,4.93
2019-03-15T19:01:44.437Z,3.90
2019-03-15T19:04:14.484Z,3.50
2019-03-15T19:06:45.042Z,4.73
2019-03-15T19:09:16.411Z,10.13
2019-03-15T19:11:46.670Z,3.10
2019-03-15T19:14:16.774Z,3.90
2019-03-15T19:16:48.253Z,3.80
2019-03-15T19:19:20.568Z,6.77
2019-03-15T19:21:51.061Z,3.97
2019-03-15T19:24:21.366Z,5.60
2019-03-15T19:26:56.425Z,9.50
2019-03-15T19:29:29.438Z,3.03
2019-03-15T19:32:00.667Z,4.07
2019-03-15T19:34:36.571Z,12.23
2019-03-15T19:37:10.385Z,4.90
2019-03-15T19:39:43.434Z,10.73
2019-03-15T19:42:13.869Z,5.73
2019-03-15T19:44:43.988Z,8.03
2019-03-15T19:47:19.856Z,6.40
2019-03-15T19:49:50.428Z,8.80
2019-03-15T19:52:20.719Z,5.33
2019-03-15T19:55:00.397Z,4.90
2019-03-15T19:57:23.031Z,3.90
2019-03-15T20:00:06.661Z,2.40
2019-03-15T20:02:29.205Z,16.73
2019-03-15T20:04:59.286Z,2.30
2019-03-15T20:07:36.194Z,10.10
2019-03-15T20:10:06.704Z,2.80
2019-03-15T20:12:37.674Z,7.10
2019-03-15T20:15:08.372Z,4.47
2019-03-15T20:17:38.818Z,3.07
2019-03-15T20:20:10.078Z,12.03
2019-03-15T20:22:42.207Z,5.97
2019-03-15T20:25:13.244Z,9.17
2019-03-15T20:27:43.667Z,5.70
2019-03-15T20:30:21.526Z,7.80
2019-03-15T20:32:57.253Z,3.97
2019-03-15T20:35:27.410Z,7.73
2019-03-15T20:37:58.930Z,10.30
2019-03-15T20:40:29.652Z,8.97
2019-03-15T20:43:00.384Z,5.93
2019-03-15T20:45:32.660Z,9.13
2019-03-15T20:48:07.285Z,3.30
2019-03-15T20:50:46.855Z,7.97
2019-03-15T20:53:12.676Z,4.20
2019-03-15T20:55:41.121Z,6.47
2019-03-15T20:58:14.003Z,3.40
2019-03-15T21:00:44.024Z,10.60
2019-03-15T21:03:14.455Z,2.87
2019-03-15T21:05:44.694Z,11.47
2019-03-15T21:08:18.825Z,10.33
2019-03-15T21:10:51.344Z,8.17
2019-03-15T21:13:24.217Z,3.60
2019-03-15T21:15:54.504Z,2.60
2019-03-15T21:18:24.549Z,4.47
2019-03-15T21:20:54.705Z,4.60
2019-03-15T21:23:24.812Z,2.33
2019-03-15T21:25:55.020Z,4.83
2019-03-15T21:28:25.422Z,4.07
2019-03-15T21:30:57.415Z,6.50
2019-03-15T21:33:28.625Z,9.50
2019-03-15T21:35:58.744Z,4.83
2019-03-15T21:38:29.689Z,6.83
2019-03-15T21:40:59.960Z,9.00
2019-03-15T21:43:36.277Z,7.73
2019-03-15T21:46:06.651Z,7.40
2019-03-15T21:48:36.748Z,4.30
2019-03-15T21:51:06.998Z,4.13
2019-03-15T21:53:39.274Z,4.67
2019-03-15T21:56:11.624Z,2.40
2019-03-15T21:58:45.595Z,6.03
2019-03-15T22:01:15.529Z,4.23
2019-03-15T22:03:48.703Z,3.33
2019-03-15T22:06:20.934Z,4.23
2019-03-15T22:08:55.653Z,5.80
2019-03-15T22:11:25.402Z,3.43
2019-03-15T22:13:58.582Z,1.90
2019-03-15T22:16:28.777Z,4.87
2019-03-15T22:18:59.205Z,2.40
2019-03-15T22:21:29.558Z,2.70
2019-03-15T22:23:59.811Z,3.03
2019-03-15T22:26:31.389Z,2.13
2019-03-15T22:29:03.352Z,10.57
2019-03-15T22:31:33.484Z,2.33
2019-03-15T22:34:08.987Z,6.93
2019-03-15T22:36:39.305Z,8.27
2019-03-15T22:39:12.823Z,9.67
2019-03-15T22:41:45.207Z,6.90
2019-03-15T22:44:15.332Z,6.90
2019-03-15T22:46:45.736Z,6.70
2019-03-15T22:49:16.788Z,8.80
2019-03-15T22:51:50.361Z,3.33
2019-03-15T22:54:20.413Z,3.23
2019-03-15T22:56:50.731Z,9.30
2019-03-15T22:59:21.521Z,6.70
2019-03-15T23:01:51.791Z,6.93
2019-03-15T23:04:21.942Z,2.60
2019-03-15T23:06:52.356Z,4.37
2019-03-15T23:09:22.490Z,14.83
2019-03-15T23:11:54.039Z,8.77
2019-03-15T23:14:26.369Z,4.30
2019-03-15T23:16:56.815Z,8.13
2019-03-15T23:19:26.996Z,6.13
2019-03-15T23:21:58.689Z,5.87
2019-03-15T23:24:29.182Z,3.07
2019-03-15T23:27:00.796Z,3.10
2019-03-15T23:29:31.380Z,3.17
2019-03-15T23:32:01.530Z,3.37
2019-03-15T23:34:32.678Z,11.53
2019-03-15T23:37:03.727Z,5.23
2019-03-15T23:39:37.106Z,5.57
2019-03-15T23:42:07.770Z,6.40
2019-03-15T23:44:40.827Z,8.13
2019-03-15T23:47:10.868Z,7.00
2019-03-15T23:49:42.716Z,3.23
2019-03-15T23:52:14.233Z,9.77
2019-03-15T23:54:45.456Z,9.50
2019-03-15T23:57:15.826Z,3.63
2019-03-15T23:59:46.411Z,5.67
